createdAt,value
2023-08-11T00:02:56.896Z,14.62
2023-08-11T00:05:59.552Z,14.62
2023-08-11T00:09:05.102Z,14.60
2023-08-11T00:12:08.087Z,14.56
2023-08-11T00:15:11.354Z,14.49
2023-08-11T00:18:14.112Z,14.51
2023-08-11T00:21:17.491Z,14.50
2023-08-11T00:24:21.483Z,14.47
2023-08-11T00:27:24.246Z,14.45
2023-08-11T00:30:27.234Z,14.43
2023-08-11T00:33:29.908Z,14.42
2023-08-11T00:36:32.563Z,14.33
2023-08-11T00:39:36.846Z,14.34
2023-08-11T00:42:39.526Z,14.38
2023-08-11T00:45:46.861Z,14.37
2023-08-11T00:48:52.378Z,14.39
2023-08-11T00:51:55.742Z,14.40
2023-08-11T00:54:59.866Z,14.45
2023-08-11T00:58:02.559Z,14.37
2023-08-11T01:01:05.469Z,14.38
2023-08-11T01:04:08.736Z,14.45
2023-08-11T01:07:19.706Z,14.48
2023-08-11T01:10:28.982Z,14.53
2023-08-11T01:13:35.389Z,14.49
2023-08-11T01:16:38.959Z,14.46
2023-08-11T01:19:41.915Z,14.43
2023-08-11T01:22:48.674Z,14.38
2023-08-11T01:25:53.832Z,14.38
2023-08-11T01:28:56.517Z,14.39
2023-08-11T01:31:59.152Z,14.38
2023-08-11T01:35:01.792Z,14.45
2023-08-11T01:38:04.701Z,14.49
2023-08-11T01:41:08.761Z,14.56
2023-08-11T01:44:11.852Z,14.63
2023-08-11T01:47:15.063Z,14.68
2023-08-11T01:50:20.085Z,14.74
2023-08-11T01:53:22.931Z,14.80
2023-08-11T01:56:29.083Z,14.85
2023-08-11T01:59:31.722Z,14.90
2023-08-11T02:02:34.438Z,14.92
2023-08-11T02:05:37.151Z,14.98
2023-08-11T02:08:39.767Z,14.99
2023-08-11T02:11:43.766Z,15.07
2023-08-11T02:14:46.392Z,15.12
2023-08-11T02:17:49.829Z,15.15
2023-08-11T02:20:53.067Z,15.17
2023-08-11T02:23:56.551Z,15.14
2023-08-11T02:27:00.650Z,15.14
2023-08-11T02:30:05.866Z,15.19
2023-08-11T02:33:08.556Z,15.24
2023-08-11T02:36:11.484Z,15.23
2023-08-11T02:39:14.161Z,15.24
2023-08-11T02:42:18.178Z,15.28
2023-08-11T02:45:21.422Z,15.28
2023-08-11T02:48:24.098Z,15.27
2023-08-11T02:51:26.737Z,15.24
2023-08-11T02:54:30.490Z,15.20
2023-08-11T02:57:34.710Z,15.26
2023-08-11T03:00:37.778Z,15.31
2023-08-11T03:03:40.818Z,15.34
2023-08-11T03:06:43.858Z,15.33
2023-08-11T03:09:46.515Z,15.37
2023-08-11T03:12:50.521Z,15.36
2023-08-11T03:15:53.300Z,15.39
2023-08-11T03:18:56.117Z,15.44
2023-08-11T03:21:58.837Z,15.50
2023-08-11T03:25:01.678Z,15.49
2023-08-11T03:28:05.999Z,15.48
2023-08-11T03:31:08.653Z,15.52
2023-08-11T03:34:11.327Z,15.55
2023-08-11T03:37:13.951Z,15.55
2023-08-11T03:40:18.095Z,15.63
2023-08-11T03:43:22.761Z,15.62
2023-08-11T03:46:25.604Z,15.68
2023-08-11T03:49:28.378Z,15.66
2023-08-11T03:52:31.049Z,15.59
2023-08-11T03:55:33.689Z,15.61
2023-08-11T03:58:38.055Z,15.65
2023-08-11T04:01:40.911Z,15.65
2023-08-11T04:04:43.576Z,15.62
2023-08-11T04:07:46.213Z,15.67
2023-08-11T04:10:48.921Z,15.68
2023-08-11T04:13:52.895Z,15.72
2023-08-11T04:16:55.631Z,15.71
2023-08-11T04:19:58.554Z,15.74
2023-08-11T04:23:01.189Z,15.78
2023-08-11T04:26:05.279Z,15.77
2023-08-11T04:29:09.281Z,15.89
2023-08-11T04:32:12.166Z,15.91
2023-08-11T04:35:14.975Z,15.95
2023-08-11T04:38:17.616Z,15.95
2023-08-11T04:41:20.263Z,16.03
2023-08-11T04:44:24.643Z,16.04
2023-08-11T04:47:27.445Z,16.07
2023-08-11T04:50:30.118Z,16.16
2023-08-11T04:53:33.217Z,16.21
2023-08-11T04:56:35.868Z,16.22
2023-08-11T04:59:39.901Z,16.27
2023-08-11T05:02:43.842Z,16.29
2023-08-11T05:05:46.622Z,16.33
2023-08-11T05:08:49.369Z,16.39
2023-08-11T05:11:52.013Z,16.41
2023-08-11T05:14:55.995Z,16.48
2023-08-11T05:17:58.759Z,16.52
2023-08-11T05:21:01.461Z,16.58
2023-08-11T05:24:04.482Z,16.64
2023-08-11T05:27:08.815Z,16.63
2023-08-11T05:30:13.713Z,16.68
2023-08-11T05:33:16.484Z,16.66
2023-08-11T05:36:19.108Z,16.70
2023-08-11T05:39:21.881Z,16.82
2023-08-11T05:42:25.028Z,16.83
2023-08-11T05:45:28.992Z,16.87
2023-08-11T05:48:31.637Z,16.89
2023-08-11T05:51:34.304Z,16.99
2023-08-11T05:54:36.926Z,17.05
2023-08-11T05:57:39.597Z,17.03
2023-08-11T06:00:43.590Z,17.12
2023-08-11T06:03:46.293Z,17.12
2023-08-11T06:06:48.972Z,17.15
2023-08-11T06:09:51.663Z,17.15
2023-08-11T06:12:56.313Z,17.27
2023-08-11T06:16:00.354Z,17.31
2023-08-11T06:19:03.025Z,17.30
2023-08-11T06:22:05.841Z,17.30
2023-08-11T06:25:09.254Z,17.21
2023-08-11T06:28:11.924Z,17.36
2023-08-11T06:31:16.177Z,17.48
2023-08-11T06:34:19.232Z,17.54
2023-08-11T06:37:22.563Z,17.48
2023-08-11T06:40:25.247Z,17.59
2023-08-11T06:43:27.947Z,17.79
2023-08-11T06:46:32.110Z,17.82
2023-08-11T06:49:34.774Z,17.77
2023-08-11T06:52:37.453Z,17.90
2023-08-11T06:55:40.142Z,17.84
2023-08-11T06:58:42.772Z,17.87
2023-08-11T07:01:46.781Z,17.95
2023-08-11T07:04:49.715Z,18.03
2023-08-11T07:07:52.417Z,17.89
2023-08-11T07:10:55.098Z,18.08
2023-08-11T07:13:58.338Z,18.08
2023-08-11T07:17:02.368Z,18.15
2023-08-11T07:20:06.586Z,18.21
2023-08-11T07:23:09.205Z,18.16
2023-08-11T07:26:11.842Z,18.19
2023-08-11T07:29:15.098Z,18.16
2023-08-11T07:32:19.104Z,18.23
2023-08-11T07:35:21.842Z,18.19
2023-08-11T07:38:24.528Z,18.25
2023-08-11T07:41:27.254Z,18.37
2023-08-11T07:44:31.675Z,18.40
2023-08-11T07:47:35.926Z,18.56
2023-08-11T07:50:39.248Z,18.56
2023-08-11T07:53:42.211Z,18.46
2023-08-11T07:56:45.947Z,18.47
2023-08-11T07:59:51.345Z,18.67
2023-08-11T08:02:57.209Z,18.58
2023-08-11T08:05:59.932Z,18.58
2023-08-11T08:09:03.869Z,18.64
2023-08-11T08:12:07.313Z,18.59
2023-08-11T08:15:11.701Z,18.71
2023-08-11T08:18:15.839Z,18.81
2023-08-11T08:21:18.467Z,18.90
2023-08-11T08:24:21.126Z,18.96
2023-08-11T08:27:25.469Z,19.08
2023-08-11T08:30:28.195Z,19.20
2023-08-11T08:33:32.371Z,19.27
2023-08-11T08:36:35.079Z,19.71
2023-08-11T08:39:37.836Z,19.72
2023-08-11T08:42:42.410Z,19.76
2023-08-11T08:45:45.937Z,19.80
2023-08-11T08:49:05.303Z,20.13
2023-08-11T08:52:08.612Z,20.13
2023-08-11T08:55:11.625Z,20.23
2023-08-11T08:58:15.822Z,20.52
2023-08-11T09:01:20.411Z,20.54
2023-08-11T09:04:25.134Z,20.65
2023-08-11T09:07:28.774Z,20.69
2023-08-11T09:10:32.205Z,20.65
2023-08-11T09:13:35.223Z,20.67
2023-08-11T09:16:39.320Z,20.74
2023-08-11T09:19:51.610Z,20.69
2023-08-11T09:22:54.331Z,20.81
2023-08-11T09:25:57.188Z,21.14
2023-08-11T09:29:00.287Z,21.00
2023-08-11T09:32:05.078Z,21.06
2023-08-11T09:35:10.748Z,21.08
2023-08-11T09:38:14.253Z,21.19
2023-08-11T09:41:18.073Z,21.34
2023-08-11T09:44:22.592Z,21.62
2023-08-11T09:47:25.346Z,21.55
2023-08-11T09:50:29.800Z,21.72
2023-08-11T09:53:34.168Z,21.77
2023-08-11T09:56:38.689Z,21.62
2023-08-11T09:59:43.288Z,21.70
2023-08-11T10:02:51.722Z,22.02
2023-08-11T10:05:56.812Z,22.25
2023-08-11T10:09:02.827Z,22.09
2023-08-11T10:12:07.270Z,22.14
2023-08-11T10:15:11.880Z,22.41
2023-08-11T10:18:15.176Z,22.49
2023-08-11T10:21:19.912Z,22.48
2023-08-11T10:24:22.768Z,22.77
2023-08-11T10:27:25.709Z,22.77
2023-08-11T10:30:28.493Z,22.95
2023-08-11T10:33:32.314Z,22.94
2023-08-11T10:36:36.357Z,22.89
2023-08-11T10:39:41.905Z,23.12
2023-08-11T10:42:44.808Z,23.45
2023-08-11T10:45:47.584Z,23.71
2023-08-11T10:48:50.252Z,24.08
2023-08-11T10:51:56.311Z,24.22
2023-08-11T10:55:01.036Z,24.45
2023-08-11T10:58:15.153Z,24.53
2023-08-11T11:01:18.263Z,24.59
2023-08-11T11:04:23.677Z,24.86
2023-08-11T11:07:27.704Z,24.99
2023-08-11T11:10:47.205Z,24.63
2023-08-11T11:13:52.839Z,24.32
2023-08-11T11:16:59.749Z,24.03
2023-08-11T11:20:03.654Z,23.86
2023-08-11T11:23:07.992Z,23.72
2023-08-11T11:26:10.614Z,23.59
2023-08-11T11:29:13.798Z,23.45
2023-08-11T11:32:16.491Z,23.25
2023-08-11T11:35:20.218Z,23.15
2023-08-11T11:38:24.508Z,23.12
2023-08-11T11:41:27.259Z,23.34
2023-08-11T11:44:30.697Z,23.42
2023-08-11T11:47:34.658Z,23.65
2023-08-11T11:50:38.263Z,23.91
2023-08-11T11:53:42.583Z,24.31
2023-08-11T11:56:58.327Z,24.57
2023-08-11T12:00:17.192Z,25.34
2023-08-11T12:03:19.856Z,25.42
2023-08-11T12:06:23.248Z,25.49
2023-08-11T12:09:27.259Z,25.88
2023-08-11T12:12:30.293Z,26.15
2023-08-11T12:15:33.377Z,26.86
2023-08-11T12:18:36.225Z,26.63
2023-08-11T12:21:39.028Z,26.38
2023-08-11T12:24:43.024Z,26.15
2023-08-11T12:27:46.505Z,25.83
2023-08-11T12:30:49.696Z,26.43
2023-08-11T12:33:52.368Z,27.29
2023-08-11T12:36:55.077Z,27.55
2023-08-11T12:39:59.070Z,27.04
2023-08-11T12:43:01.728Z,27.68
2023-08-11T12:46:04.629Z,28.39
2023-08-11T12:49:07.330Z,28.68
2023-08-11T12:52:10.215Z,29.08
2023-08-11T12:55:16.707Z,29.60
2023-08-11T12:58:20.883Z,29.47
2023-08-11T13:01:24.157Z,29.47
2023-08-11T13:04:26.842Z,29.43
2023-08-11T13:07:29.503Z,29.68
2023-08-11T13:10:33.526Z,29.56
2023-08-11T13:13:36.174Z,29.66
2023-08-11T13:16:38.788Z,29.90
2023-08-11T13:19:41.717Z,30.26
2023-08-11T13:22:44.607Z,30.51
2023-08-11T13:25:48.589Z,30.21
2023-08-11T13:28:52.635Z,30.33
2023-08-11T13:31:55.295Z,30.26
2023-08-11T13:34:57.932Z,30.27
2023-08-11T13:38:00.684Z,30.11
2023-08-11T13:41:04.881Z,30.39
2023-08-11T13:44:07.660Z,30.46
2023-08-11T13:47:10.418Z,30.16
2023-08-11T13:50:13.038Z,29.93
2023-08-11T13:53:15.983Z,29.86
2023-08-11T13:56:20.277Z,29.93
2023-08-11T13:59:22.937Z,30.21
2023-08-11T14:02:26.480Z,30.14
2023-08-11T14:05:30.455Z,29.92
2023-08-11T14:08:33.318Z,29.50
2023-08-11T14:11:38.725Z,29.65
2023-08-11T14:14:41.364Z,29.60
2023-08-11T14:17:44.087Z,29.63
2023-08-11T14:20:46.746Z,29.48
2023-08-11T14:23:49.414Z,29.27
2023-08-11T14:26:53.389Z,28.94
2023-08-11T14:29:56.033Z,28.92
2023-08-11T14:32:58.811Z,28.93
2023-08-11T14:36:03.998Z,28.67
2023-08-11T14:39:15.230Z,28.40
2023-08-11T14:42:19.534Z,28.11
2023-08-11T14:45:22.184Z,27.66
2023-08-11T14:48:27.723Z,27.80
2023-08-11T14:51:30.799Z,27.35
2023-08-11T14:54:33.421Z,27.10
2023-08-11T14:57:37.456Z,27.05
2023-08-11T15:00:40.177Z,26.58
2023-08-11T15:03:43.450Z,26.54
2023-08-11T15:06:46.189Z,26.48
2023-08-11T15:09:48.841Z,26.28
2023-08-11T15:12:52.844Z,26.31
2023-08-11T15:15:55.567Z,26.12
2023-08-11T15:18:58.288Z,26.11
2023-08-11T15:22:00.975Z,26.00
2023-08-11T15:25:05.428Z,26.08
2023-08-11T15:28:09.530Z,25.95
2023-08-11T15:31:12.203Z,26.16
2023-08-11T15:34:14.863Z,26.16
2023-08-11T15:37:17.487Z,26.35
2023-08-11T15:40:20.129Z,26.05
2023-08-11T15:43:24.113Z,25.87
2023-08-11T15:46:26.850Z,25.90
2023-08-11T15:49:29.501Z,26.06
2023-08-11T15:52:32.198Z,25.81
2023-08-11T15:55:36.769Z,25.78
2023-08-11T15:58:41.189Z,25.78
2023-08-11T16:01:52.542Z,25.69
2023-08-11T16:05:02.346Z,25.68
2023-08-11T16:08:05.595Z,25.78
2023-08-11T16:11:08.430Z,25.55
2023-08-11T16:14:12.776Z,25.46
2023-08-11T16:17:15.495Z,25.39
2023-08-11T16:20:18.448Z,25.51
2023-08-11T16:23:21.148Z,25.49
2023-08-11T16:26:23.805Z,25.54
2023-08-11T16:29:27.950Z,25.45
2023-08-11T16:32:30.726Z,25.42
2023-08-11T16:35:33.524Z,25.34
2023-08-11T16:38:36.158Z,25.35
2023-08-11T16:41:38.783Z,25.44
2023-08-11T16:44:42.771Z,25.48
2023-08-11T16:47:45.429Z,25.29
2023-08-11T16:50:48.068Z,25.20
2023-08-11T16:53:50.744Z,25.12
2023-08-11T16:56:53.356Z,25.03
2023-08-11T16:59:57.344Z,25.00
2023-08-11T17:03:00.068Z,24.95
2023-08-11T17:06:02.778Z,24.93
2023-08-11T17:09:05.566Z,24.95
2023-08-11T17:12:09.401Z,24.88
2023-08-11T17:15:13.965Z,24.80
2023-08-11T17:18:16.595Z,24.75
2023-08-11T17:21:20.640Z,24.66
2023-08-11T17:24:23.255Z,24.61
2023-08-11T17:27:25.915Z,24.55
2023-08-11T17:30:30.849Z,24.50
2023-08-11T17:33:33.563Z,24.44
2023-08-11T17:36:36.466Z,24.42
2023-08-11T17:39:39.102Z,24.36
2023-08-11T17:42:42.162Z,24.34
2023-08-11T17:45:46.612Z,24.33
2023-08-11T17:48:49.302Z,24.28
2023-08-11T17:51:51.981Z,24.20
2023-08-11T17:54:54.622Z,24.17
2023-08-11T17:57:57.283Z,24.11
2023-08-11T18:01:01.288Z,24.00
2023-08-11T18:04:07.462Z,23.98
2023-08-11T18:07:10.922Z,23.92
2023-08-11T18:10:13.649Z,23.96
2023-08-11T18:13:16.308Z,23.91
2023-08-11T18:16:20.340Z,23.91
2023-08-11T18:19:22.986Z,23.92
2023-08-11T18:22:25.729Z,23.84
2023-08-11T18:25:28.607Z,23.84
2023-08-11T18:28:31.300Z,23.66
2023-08-11T18:31:35.290Z,23.65
2023-08-11T18:34:37.942Z,23.61
2023-08-11T18:37:40.577Z,23.57
2023-08-11T18:40:43.306Z,23.45
2023-08-11T18:43:45.931Z,23.41
2023-08-11T18:46:49.931Z,23.40
2023-08-11T18:49:52.855Z,23.28
2023-08-11T18:52:55.479Z,23.25
2023-08-11T18:55:59.044Z,23.14
2023-08-11T18:59:01.677Z,23.02
2023-08-11T19:02:05.894Z,23.00
2023-08-11T19:05:09.233Z,22.92
2023-08-11T19:08:13.118Z,22.96
2023-08-11T19:11:17.165Z,22.77
2023-08-11T19:14:19.858Z,22.80
2023-08-11T19:17:23.871Z,22.72
2023-08-11T19:20:26.626Z,22.69
2023-08-11T19:23:29.278Z,22.62
2023-08-11T19:26:31.945Z,22.55
2023-08-11T19:29:34.603Z,22.53
2023-08-11T19:32:38.653Z,22.47
2023-08-11T19:35:41.384Z,22.44
2023-08-11T19:38:45.222Z,22.37
2023-08-11T19:41:47.852Z,22.30
2023-08-11T19:44:50.481Z,22.20
2023-08-11T19:47:54.546Z,22.13
2023-08-11T19:50:58.197Z,22.17
2023-08-11T19:54:00.862Z,22.11
2023-08-11T19:57:03.612Z,22.07
2023-08-11T20:00:07.366Z,22.03
2023-08-11T20:03:11.642Z,21.99
2023-08-11T20:06:14.312Z,21.96
2023-08-11T20:09:17.028Z,21.91
2023-08-11T20:12:20.335Z,21.87
2023-08-11T20:15:23.012Z,21.83
2023-08-11T20:18:27.001Z,21.84
2023-08-11T20:21:29.642Z,21.83
2023-08-11T20:24:33.078Z,21.81
2023-08-11T20:27:35.698Z,21.81
2023-08-11T20:30:38.352Z,21.73
2023-08-11T20:33:42.342Z,21.66
2023-08-11T20:36:44.971Z,21.60
2023-08-11T20:39:47.584Z,21.63
2023-08-11T20:42:50.265Z,21.58
2023-08-11T20:45:53.077Z,21.45
2023-08-11T20:48:57.133Z,21.55
2023-08-11T20:52:01.501Z,21.55
2023-08-11T20:55:04.963Z,21.49
2023-08-11T20:58:07.569Z,21.53
2023-08-11T21:01:10.853Z,21.49
2023-08-11T21:04:15.472Z,21.35
2023-08-11T21:07:18.269Z,21.29
2023-08-11T21:10:21.164Z,21.30
2023-08-11T21:13:24.172Z,21.44
2023-08-11T21:16:26.844Z,21.41
2023-08-11T21:19:30.906Z,21.35
2023-08-11T21:22:33.559Z,21.45
2023-08-11T21:25:36.522Z,21.46
2023-08-11T21:28:39.191Z,21.51
2023-08-11T21:31:41.924Z,21.42
2023-08-11T21:34:45.963Z,21.43
2023-08-11T21:37:48.640Z,21.37
2023-08-11T21:40:51.269Z,21.38
2023-08-11T21:43:53.933Z,21.34
2023-08-11T21:46:56.594Z,21.31
2023-08-11T21:50:00.585Z,21.36
2023-08-11T21:53:17.251Z,21.32
2023-08-11T21:56:25.646Z,21.35
2023-08-11T21:59:29.827Z,21.26
2023-08-11T22:02:32.720Z,21.12
2023-08-11T22:05:36.857Z,21.01
2023-08-11T22:08:39.564Z,21.19
2023-08-11T22:11:42.266Z,21.20
2023-08-11T22:14:45.433Z,20.92
2023-08-11T22:17:48.097Z,20.99
2023-08-11T22:20:52.223Z,21.07
2023-08-11T22:23:54.870Z,21.06
2023-08-11T22:26:57.495Z,21.00
2023-08-11T22:30:00.320Z,20.89
2023-08-11T22:33:03.293Z,20.95
2023-08-11T22:36:07.881Z,20.90
2023-08-11T22:39:10.576Z,20.89
2023-08-11T22:42:13.201Z,20.83
2023-08-11T22:45:16.120Z,20.66
2023-08-11T22:48:18.805Z,20.66
2023-08-11T22:51:22.905Z,20.72
2023-08-11T22:54:25.557Z,20.79
2023-08-11T22:57:28.206Z,20.75
2023-08-11T23:00:30.966Z,20.59
2023-08-11T23:03:33.664Z,20.64
2023-08-11T23:06:37.635Z,20.46
2023-08-11T23:09:40.268Z,20.65
2023-08-11T23:12:42.968Z,20.47
2023-08-11T23:15:45.646Z,20.56
2023-08-11T23:18:48.393Z,20.76
2023-08-11T23:21:52.381Z,20.84
2023-08-11T23:24:55.178Z,20.64
2023-08-11T23:27:57.849Z,20.79
2023-08-11T23:31:00.609Z,20.70
2023-08-11T23:34:03.419Z,20.59
2023-08-11T23:37:07.424Z,20.75
2023-08-11T23:40:13.286Z,20.59
2023-08-11T23:43:16.262Z,20.73
2023-08-11T23:46:19.074Z,20.65
2023-08-11T23:49:21.823Z,20.72
2023-08-11T23:52:25.872Z,20.73
2023-08-11T23:55:28.928Z,20.64
2023-08-11T23:58:31.648Z,20.64
